Time;durP1;ratioP1;P1;durP2;ratioP2;P2;SDS_P1;SDS_P2;PMS_P1;PMS_P2;Temp;Humidity;BMP_temperature;BMP_pressure;BME280_temperature;BME280_humidity;BME280_pressure;Samples;Min_cycle;Max_cycle;Signal;HPM_P1;HPM_P2
2023/07/21 00:01:09;;;;;;;16.60;13.70;;;15.30;99.90;;;;;;5003972;28;20414;-72
2023/07/21 00:03:38;;;;;;;16.23;13.53;;;15.30;99.90;;;;;;5005483;28;20395;-73
2023/07/21 00:06:06;;;;;;;17.15;12.80;;;15.40;99.90;;;;;;5002652;28;20397;-72
2023/07/21 00:08:35;;;;;;;14.55;12.40;;;15.50;99.90;;;;;;4999232;28;20386;-73
2023/07/21 00:11:02;;;;;;;19.05;12.52;;;15.60;99.90;;;;;;4999805;28;20398;-74
2023/07/21 00:13:29;;;;;;;17.45;12.95;;;15.50;99.90;;;;;;5002354;28;20460;-73
2023/07/21 00:15:55;;;;;;;16.60;13.15;;;15.30;99.90;;;;;;5002094;28;20398;-73
2023/07/21 00:18:22;;;;;;;16.33;12.63;;;15.10;99.90;;;;;;5006549;28;20390;-73
2023/07/21 00:20:49;;;;;;;17.95;13.13;;;15.10;99.90;;;;;;5007770;28;20402;-74
2023/07/21 00:23:16;;;;;;;16.05;13.48;;;15.00;99.90;;;;;;5005398;28;20395;-73
2023/07/21 00:25:45;;;;;;;19.60;15.65;;;14.90;99.90;;;;;;5002142;28;20422;-73
2023/07/21 00:28:11;;;;;;;16.90;14.10;;;14.90;99.90;;;;;;5004471;28;20473;-73
2023/07/21 00:30:37;;;;;;;17.50;14.15;;;14.90;99.90;;;;;;5006406;28;20883;-74
2023/07/21 00:33:04;;;;;;;17.25;13.50;;;14.80;99.90;;;;;;5004453;28;20413;-73
2023/07/21 00:35:29;;;;;;;17.57;13.83;;;14.80;99.90;;;;;;5009637;28;20398;-74
2023/07/21 00:38:00;;;;;;;19.58;13.68;;;14.80;99.90;;;;;;4995678;28;20398;-73
2023/07/21 00:40:26;;;;;;;17.05;13.73;;;14.80;99.90;;;;;;4978089;28;20771;-73
2023/07/21 00:42:52;;;;;;;17.45;14.60;;;14.80;99.90;;;;;;4978194;28;20474;-73
2023/07/21 00:45:17;;;;;;;17.10;14.50;;;14.90;99.90;;;;;;4995116;28;20433;-73
2023/07/21 00:47:44;;;;;;;16.47;13.83;;;14.90;99.90;;;;;;4993984;28;20382;-72
2023/07/21 00:50:11;;;;;;;17.95;14.10;;;14.90;99.90;;;;;;4997142;28;20386;-74
2023/07/21 00:52:38;;;;;;;18.10;14.10;;;15.00;99.90;;;;;;4978891;28;20394;-73
2023/07/21 00:55:04;;;;;;;16.13;13.35;;;15.00;99.90;;;;;;4996483;28;20814;-72
2023/07/21 00:57:31;;;;;;;17.13;13.50;;;15.00;99.90;;;;;;4996705;28;20395;-72
2023/07/21 00:59:57;;;;;;;16.00;13.48;;;14.90;99.90;;;;;;4979603;28;20398;-74
2023/07/21 01:02:22;;;;;;;18.77;13.23;;;15.00;99.90;;;;;;4996682;28;20481;-73
2023/07/21 01:04:48;;;;;;;18.33;13.23;;;15.00;99.90;;;;;;4995458;28;20450;-75
2023/07/21 01:07:15;;;;;;;18.02;13.07;;;15.00;99.90;;;;;;4995510;28;20974;-73
2023/07/21 01:09:41;;;;;;;15.98;13.07;;;15.00;99.90;;;;;;4995923;28;20401;-73
2023/07/21 01:12:07;;;;;;;15.25;13.15;;;15.00;99.90;;;;;;4995753;28;20406;-73
2023/07/21 01:14:35;;;;;;;17.90;13.80;;;15.00;99.90;;;;;;4976485;28;20401;-71
2023/07/21 01:17:02;;;;;;;18.45;14.25;;;15.00;99.90;;;;;;4992484;28;20897;-72
2023/07/21 01:19:29;;;;;;;19.77;14.23;;;15.00;99.90;;;;;;4984438;28;20644;-72
2023/07/21 01:22:10;;;;;;;18.93;15.90;;;15.00;99.90;;;;;;4994077;28;20989;-71
2023/07/21 01:24:50;;;;;;;23.58;17.00;;;15.00;99.90;;;;;;5008959;28;20428;-71
2023/07/21 01:27:21;;;;;;;16.42;13.93;;;15.00;99.90;;;;;;5013721;28;20871;-72
2023/07/21 01:29:48;;;;;;;17.85;14.60;;;15.10;99.90;;;;;;5012956;28;20397;-72
2023/07/21 01:32:17;;;;;;;17.45;14.93;;;15.00;99.90;;;;;;4996044;28;20398;-73
2023/07/21 01:34:44;;;;;;;19.23;15.10;;;14.90;99.90;;;;;;4996307;28;20751;-73
2023/07/21 01:37:11;;;;;;;18.40;15.15;;;14.90;99.90;;;;;;4995203;28;20391;-73
2023/07/21 01:39:39;;;;;;;19.05;14.77;;;14.90;99.90;;;;;;4995204;28;20473;-73
2023/07/21 01:42:05;;;;;;;19.38;15.10;;;14.90;99.90;;;;;;4994617;28;20520;-73
2023/07/21 01:44:31;;;;;;;23.20;13.98;;;14.90;99.90;;;;;;4976024;28;20410;-74
2023/07/21 01:46:57;;;;;;;20.38;15.20;;;14.90;99.90;;;;;;4993221;28;20398;-73
2023/07/21 01:49:23;;;;;;;23.50;16.33;;;14.90;99.90;;;;;;4993402;28;20413;-73
2023/07/21 01:51:49;;;;;;;24.10;16.80;;;14.80;99.90;;;;;;4993838;28;20448;-74
2023/07/21 01:54:31;;;;;;;21.55;16.77;;;14.90;99.90;;;;;;4976752;28;20394;-73
2023/07/21 01:57:03;;;;;;;22.50;16.58;;;14.90;99.90;;;;;;4993162;28;20394;-73
2023/07/21 01:59:28;;;;;;;23.67;16.90;;;14.80;99.90;;;;;;4993453;28;20444;-74
2023/07/21 02:01:56;;;;;;;24.93;18.63;;;14.90;99.90;;;;;;4993352;28;20414;-74
2023/07/21 02:04:25;;;;;;;25.73;18.60;;;14.80;99.90;;;;;;4994024;28;20743;-74
2023/07/21 02:06:51;;;;;;;27.20;19.40;;;14.80;99.90;;;;;;4993390;28;20463;-74
2023/07/21 02:09:17;;;;;;;24.57;19.07;;;14.70;99.90;;;;;;4995455;28;20440;-74
2023/07/21 02:11:44;;;;;;;22.13;17.95;;;14.80;99.90;;;;;;4993452;28;20398;-74
2023/07/21 02:14:09;;;;;;;25.92;19.90;;;14.80;99.90;;;;;;4976738;28;20399;-73
2023/07/21 02:16:37;;;;;;;25.35;19.33;;;14.80;99.90;;;;;;4993324;28;20497;-74
2023/07/21 02:19:05;;;;;;;27.45;19.20;;;14.90;99.90;;;;;;4993658;28;20390;-74
2023/07/21 02:21:31;;;;;;;26.13;20.15;;;14.90;99.90;;;;;;4993763;28;20414;-73
2023/07/21 02:23:56;;;;;;;24.98;19.27;;;14.90;99.90;;;;;;4993719;28;20898;-73
2023/07/21 02:26:22;;;;;;;25.00;18.10;;;15.00;99.90;;;;;;4993958;28;20390;-73
2023/07/21 02:28:48;;;;;;;29.07;20.20;;;15.00;99.90;;;;;;4994209;28;20392;-74
2023/07/21 02:31:13;;;;;;;30.02;20.60;;;14.90;99.90;;;;;;4976443;28;20405;-74
2023/07/21 02:33:39;;;;;;;31.17;21.63;;;14.90;99.90;;;;;;4975955;28;20394;-73
2023/07/21 02:36:05;;;;;;;30.13;22.70;;;14.90;99.90;;;;;;4993386;28;20394;-73
2023/07/21 02:38:31;;;;;;;31.23;23.25;;;14.90;99.90;;;;;;4993949;28;20876;-73
2023/07/21 02:41:04;;;;;;;30.93;23.73;;;14.90;99.90;;;;;;4993864;28;20554;-73
2023/07/21 02:43:32;;;;;;;35.35;25.80;;;14.90;99.90;;;;;;4993888;28;20736;-73
2023/07/21 02:45:58;;;;;;;39.88;27.42;;;15.00;99.90;;;;;;4993407;28;20401;-73
2023/07/21 02:48:26;;;;;;;35.03;26.47;;;15.00;99.90;;;;;;4996405;28;20387;-75
2023/07/21 02:50:55;;;;;;;39.00;28.20;;;15.10;99.90;;;;;;4997704;28;20421;-73
2023/07/21 02:53:21;;;;;;;39.97;28.55;;;15.10;99.90;;;;;;4978334;28;20436;-73
2023/07/21 02:55:47;;;;;;;38.90;27.23;;;15.00;99.90;;;;;;4976070;28;20806;-73
2023/07/21 02:58:15;;;;;;;44.83;31.27;;;15.00;99.90;;;;;;4993570;28;20896;-73
2023/07/21 03:00:41;;;;;;;42.33;30.30;;;15.00;99.90;;;;;;4993704;28;20434;-73
2023/07/21 03:03:12;;;;;;;43.95;30.33;;;15.00;99.90;;;;;;4993392;28;20426;-72
2023/07/21 03:05:38;;;;;;;42.67;29.95;;;15.00;99.90;;;;;;4993501;28;20923;-73
2023/07/21 03:08:04;;;;;;;44.67;30.92;;;15.00;99.90;;;;;;4993422;28;20422;-73
2023/07/21 03:10:30;;;;;;;41.67;30.02;;;15.00;99.90;;;;;;4995206;28;20441;-73
2023/07/21 03:12:55;;;;;;;42.50;28.77;;;15.00;99.90;;;;;;4997255;28;20390;-73
2023/07/21 03:17:52;;;;;;;39.83;29.20;;;15.10;99.90;;;;;;5012278;28;20484;-71
2023/07/21 03:20:18;;;;;;;38.72;27.63;;;15.20;99.90;;;;;;5013572;28;20427;-71
2023/07/21 03:22:45;;;;;;;41.38;29.42;;;15.20;99.90;;;;;;5014003;28;20754;-71
2023/07/21 03:25:13;;;;;;;41.95;30.17;;;15.20;99.90;;;;;;5013658;28;20388;-71
2023/07/21 03:27:39;;;;;;;46.73;31.70;;;15.20;99.90;;;;;;5013376;28;20393;-71
2023/07/21 03:30:11;;;;;;;44.63;30.85;;;15.10;99.90;;;;;;5013278;28;20849;-71
2023/07/21 03:32:38;;;;;;;45.35;31.63;;;15.10;99.90;;;;;;5012981;28;20385;-71
2023/07/21 03:35:04;;;;;;;40.10;30.00;;;15.00;99.90;;;;;;5013044;28;20407;-71
2023/07/21 03:37:34;;;;;;;45.25;30.85;;;15.20;99.90;;;;;;5013229;28;20811;-72
2023/07/21 03:40:00;;;;;;;42.03;31.08;;;15.10;99.90;;;;;;5013258;28;20377;-71
2023/07/21 03:42:26;;;;;;;44.67;31.03;;;15.00;99.90;;;;;;5012939;28;20772;-71
2023/07/21 03:44:52;;;;;;;45.73;31.73;;;14.90;99.90;;;;;;5012996;28;20395;-71
2023/07/21 03:47:19;;;;;;;47.70;32.93;;;14.90;99.90;;;;;;5012750;28;20385;-72
2023/07/21 03:49:50;;;;;;;54.72;35.70;;;15.00;99.90;;;;;;5012780;28;20413;-71
2023/07/21 03:52:16;;;;;;;48.33;31.77;;;14.90;99.90;;;;;;5012638;28;20778;-72
2023/07/21 03:54:41;;;;;;;45.63;31.50;;;14.90;99.90;;;;;;5012861;28;20399;-72
2023/07/21 03:57:07;;;;;;;41.73;30.70;;;15.00;99.90;;;;;;5012664;28;20389;-71
2023/07/21 03:59:33;;;;;;;46.03;29.70;;;15.40;99.90;;;;;;5012701;28;20462;-72
2023/07/21 04:01:58;;;;;;;43.87;31.10;;;15.40;99.90;;;;;;5012447;28;20498;-72
2023/07/21 04:04:24;;;;;;;39.33;29.90;;;15.30;99.90;;;;;;5012454;28;20751;-70
2023/07/21 04:06:49;;;;;;;42.47;30.15;;;15.50;99.90;;;;;;5012247;28;20533;-73
2023/07/21 04:09:15;;;;;;;40.08;29.05;;;15.50;99.90;;;;;;5012385;28;21133;-73
2023/07/21 04:11:42;;;;;;;40.65;29.35;;;15.60;99.90;;;;;;5012217;28;20412;-70
2023/07/21 04:14:07;;;;;;;38.95;28.67;;;15.40;99.90;;;;;;5012292;28;20385;-71
2023/07/21 04:16:34;;;;;;;39.37;29.20;;;15.40;99.90;;;;;;5012367;28;20404;-71
2023/07/21 04:18:59;;;;;;;42.15;28.35;;;15.60;99.90;;;;;;5012561;28;20447;-71
2023/07/21 04:21:25;;;;;;;36.60;27.25;;;15.70;95.40;;;;;;5014005;28;20409;-70
2023/07/21 04:23:51;;;;;;;33.22;24.65;;;15.80;90.20;;;;;;5012310;28;20416;-70
2023/07/21 04:26:20;;;;;;;33.70;26.10;;;15.90;82.40;;;;;;5012154;28;20416;-76
2023/07/21 04:28:45;;;;;;;32.40;24.95;;;16.00;80.60;;;;;;5012961;28;20393;-70
2023/07/21 04:31:11;;;;;;;34.67;25.67;;;16.00;77.80;;;;;;5011890;28;20400;-73
2023/07/21 04:33:38;;;;;;;32.28;24.00;;;16.00;78.30;;;;;;5012212;28;20426;-71
2023/07/21 04:36:04;;;;;;;31.73;25.08;;;15.90;80.50;;;;;;5010561;28;20429;-71
2023/07/21 04:38:30;;;;;;;32.90;26.20;;;15.80;85.80;;;;;;5011805;28;20411;-71
2023/07/21 04:40:56;;;;;;;36.03;27.40;;;15.70;91.20;;;;;;5011613;28;20448;-71
2023/07/21 04:43:22;;;;;;;34.97;27.42;;;15.60;95.50;;;;;;5011761;28;20420;-72
2023/07/21 04:45:47;;;;;;;39.85;27.67;;;15.50;99.80;;;;;;5011928;28;20421;-71
2023/07/21 04:48:13;;;;;;;36.28;27.45;;;15.60;99.90;;;;;;5011843;28;20392;-72
2023/07/21 04:50:42;;;;;;;39.70;29.40;;;15.60;99.90;;;;;;4994285;28;20940;-72
2023/07/21 04:53:08;;;;;;;42.92;30.13;;;15.70;99.90;;;;;;5011489;28;20389;-72
2023/07/21 04:55:34;;;;;;;42.00;30.23;;;15.80;95.80;;;;;;5011689;28;20889;-72
2023/07/21 04:58:01;;;;;;;42.08;30.20;;;15.70;98.00;;;;;;5011572;28;20404;-72
2023/07/21 05:00:27;;;;;;;39.90;29.00;;;15.60;99.30;;;;;;5011547;28;20782;-71
2023/07/21 05:02:53;;;;;;;39.45;28.65;;;15.70;99.00;;;;;;5011142;28;20392;-72
2023/07/21 05:05:18;;;;;;;39.37;28.40;;;15.80;96.90;;;;;;5011478;28;20842;-72
2023/07/21 05:07:44;;;;;;;37.20;27.87;;;15.80;96.20;;;;;;5011702;28;20381;-72
2023/07/21 05:10:10;;;;;;;38.35;27.40;;;16.10;89.80;;;;;;5011591;28;20478;-72
2023/07/21 05:12:36;;;;;;;36.80;27.98;;;16.20;85.80;;;;;;5011365;28;20381;-72
2023/07/21 05:15:01;;;;;;;38.63;27.92;;;16.00;88.30;;;;;;5011522;28;20789;-71
2023/07/21 05:17:27;;;;;;;40.47;29.88;;;16.00;91.40;;;;;;5011140;28;20877;-72
2023/07/21 05:19:53;;;;;;;35.70;27.73;;;16.00;92.30;;;;;;5011224;28;20431;-72
2023/07/21 05:22:19;;;;;;;36.58;27.70;;;16.10;92.20;;;;;;5010969;28;20391;-72
2023/07/21 05:24:45;;;;;;;36.40;26.63;;;16.20;91.20;;;;;;5011695;28;20376;-71
2023/07/21 05:27:11;;;;;;;34.47;26.13;;;16.30;88.50;;;;;;5011150;28;20396;-72
2023/07/21 05:29:37;;;;;;;36.35;25.98;;;16.40;83.40;;;;;;5011380;28;20396;-72
2023/07/21 05:32:05;;;;;;;31.07;25.33;;;16.50;84.40;;;;;;5010747;28;20385;-73
2023/07/21 05:34:32;;;;;;;31.00;25.15;;;16.70;85.30;;;;;;5010733;28;20877;-73
2023/07/21 05:36:58;;;;;;;39.88;26.00;;;16.80;82.50;;;;;;5011234;28;20725;-72
2023/07/21 05:39:24;;;;;;;35.70;25.83;;;16.80;79.30;;;;;;5011077;28;20400;-72
2023/07/21 05:41:49;;;;;;;32.20;24.80;;;17.00;76.20;;;;;;5011631;28;20495;-72
2023/07/21 05:44:15;;;;;;;32.53;25.17;;;17.00;77.20;;;;;;5010833;28;20897;-71
2023/07/21 05:46:40;;;;;;;28.70;22.87;;;17.00;75.50;;;;;;5010868;28;20793;-71
2023/07/21 05:49:07;;;;;;;35.90;26.43;;;17.20;72.70;;;;;;5011017;28;20381;-72
2023/07/21 05:51:33;;;;;;;35.45;27.00;;;17.10;66.10;;;;;;5010817;28;20393;-72
2023/07/21 05:53:59;;;;;;;32.92;25.30;;;17.20;59.20;;;;;;5010753;28;20403;-72
2023/07/21 05:56:25;;;;;;;32.13;25.88;;;17.20;58.90;;;;;;5010743;28;20404;-71
2023/07/21 05:58:50;;;;;;;35.25;27.15;;;17.10;61.00;;;;;;5010727;28;20392;-70
2023/07/21 06:01:16;;;;;;;36.20;26.85;;;17.10;58.50;;;;;;5010446;28;20412;-71
2023/07/21 06:03:42;;;;;;;29.73;25.77;;;17.10;58.50;;;;;;5010642;28;20396;-71
2023/07/21 06:06:08;;;;;;;31.27;24.47;;;17.30;55.60;;;;;;5010514;28;20376;-71
2023/07/21 06:08:34;;;;;;;34.50;25.20;;;17.30;53.20;;;;;;5010992;28;20393;-71
2023/07/21 06:11:00;;;;;;;32.70;25.10;;;17.30;54.20;;;;;;5010373;28;20410;-71
2023/07/21 06:13:29;;;;;;;33.22;25.02;;;17.50;52.60;;;;;;5010699;28;20380;-71
2023/07/21 06:15:55;;;;;;;32.30;25.10;;;17.50;52.80;;;;;;5010561;28;20470;-71
2023/07/21 06:18:21;;;;;;;33.03;25.70;;;17.50;53.50;;;;;;5012094;28;20389;-72
2023/07/21 06:20:47;;;;;;;32.53;25.63;;;17.60;53.70;;;;;;5010723;28;20404;-71
2023/07/21 06:23:13;;;;;;;31.48;25.35;;;17.60;54.50;;;;;;5010358;28;20393;-71
2023/07/21 06:25:39;;;;;;;31.80;25.43;;;17.70;53.20;;;;;;5010615;28;20439;-72
2023/07/21 06:28:05;;;;;;;31.73;25.70;;;17.80;53.70;;;;;;5010338;28;20377;-71
2023/07/21 06:30:30;;;;;;;32.22;25.55;;;17.90;53.20;;;;;;5010872;28;20719;-72
2023/07/21 06:32:56;;;;;;;32.47;25.50;;;17.70;53.30;;;;;;5010627;28;20388;-72
2023/07/21 06:35:22;;;;;;;31.40;25.17;;;17.60;54.50;;;;;;5010491;28;20393;-72
2023/07/21 06:37:47;;;;;;;31.20;23.97;;;17.50;53.80;;;;;;5010628;28;20396;-71
2023/07/21 06:40:13;;;;;;;30.10;25.05;;;17.60;52.30;;;;;;5010474;28;20407;-71
2023/07/21 06:42:44;;;;;;;29.43;23.90;;;17.80;53.40;;;;;;5010198;28;20430;-71
2023/07/21 06:45:10;;;;;;;32.95;24.65;;;18.20;51.20;;;;;;5011440;28;20832;-71
2023/07/21 06:47:36;;;;;;;31.90;25.10;;;18.50;49.90;;;;;;5014137;28;20396;-73
2023/07/21 06:50:02;;;;;;;27.10;23.85;;;18.40;49.00;;;;;;5013820;28;20764;-72
2023/07/21 06:52:27;;;;;;;31.30;23.90;;;18.40;47.30;;;;;;5013653;28;20807;-73
2023/07/21 06:54:53;;;;;;;27.90;23.30;;;18.50;44.90;;;;;;5014167;28;20467;-72
2023/07/21 06:57:19;;;;;;;28.00;22.60;;;18.50;44.30;;;;;;5013987;28;20384;-71
2023/07/21 06:59:45;;;;;;;27.92;22.00;;;18.60;44.40;;;;;;5013967;28;20451;-72
2023/07/21 07:02:12;;;;;;;27.50;22.20;;;18.60;43.70;;;;;;5013493;28;20416;-71
2023/07/21 07:04:38;;;;;;;25.75;20.10;;;19.00;41.40;;;;;;5013843;28;20380;-71
2023/07/21 07:07:04;;;;;;;24.80;21.08;;;19.10;40.30;;;;;;5013630;28;20757;-71
2023/07/21 07:09:30;;;;;;;24.55;20.42;;;19.20;39.60;;;;;;5013971;28;20381;-72
2023/07/21 07:11:56;;;;;;;27.27;20.98;;;19.20;39.10;;;;;;5013506;28;20413;-71
2023/07/21 07:14:22;;;;;;;25.75;20.30;;;19.40;39.20;;;;;;5013586;28;20469;-71
2023/07/21 07:16:47;;;;;;;25.77;20.60;;;19.40;38.00;;;;;;5013382;28;20500;-71
2023/07/21 07:19:13;;;;;;;27.53;20.97;;;19.30;39.10;;;;;;5013754;28;20385;-71
2023/07/21 07:21:38;;;;;;;30.93;22.60;;;19.40;40.20;;;;;;5013313;28;20466;-72
2023/07/21 07:24:04;;;;;;;25.58;20.60;;;19.40;39.40;;;;;;5014407;28;20416;-72
2023/07/21 07:26:31;;;;;;;21.90;17.60;;;19.40;38.60;;;;;;5014290;28;20774;-72
2023/07/21 07:28:57;;;;;;;16.75;14.32;;;19.60;36.60;;;;;;5013771;28;20392;-72
2023/07/21 07:31:22;;;;;;;18.53;16.53;;;19.60;35.50;;;;;;5013896;28;20881;-72
2023/07/21 07:33:48;;;;;;;26.83;17.13;;;19.70;33.70;;;;;;5013407;28;20392;-71
2023/07/21 07:36:13;;;;;;;21.45;17.70;;;19.70;34.50;;;;;;5013678;28;20468;-71
2023/07/21 07:38:39;;;;;;;22.30;16.17;;;20.00;33.80;;;;;;5013706;28;20392;-73
2023/07/21 07:41:09;;;;;;;22.30;15.70;;;20.20;33.20;;;;;;5014240;28;20405;-72
2023/07/21 07:43:35;;;;;;;17.98;13.90;;;20.50;31.00;;;;;;5014861;28;20385;-72
2023/07/21 07:46:01;;;;;;;16.40;13.30;;;20.60;29.40;;;;;;5014677;28;20377;-72
2023/07/21 07:48:27;;;;;;;16.15;12.15;;;21.00;28.90;;;;;;5014388;28;20908;-72
2023/07/21 07:50:53;;;;;;;14.55;12.13;;;21.30;27.30;;;;;;5014402;28;20401;-72
2023/07/21 07:53:19;;;;;;;14.52;11.82;;;21.50;26.20;;;;;;5014072;28;20400;-72
2023/07/21 07:55:45;;;;;;;16.58;11.40;;;21.80;25.70;;;;;;5013052;28;20728;-72
2023/07/21 07:58:11;;;;;;;16.45;12.82;;;22.20;25.00;;;;;;4996529;28;20405;-72
2023/07/21 08:00:41;;;;;;;18.13;13.73;;;22.20;23.70;;;;;;5012934;28;20409;-72
2023/07/21 08:03:07;;;;;;;15.50;12.80;;;21.70;26.30;;;;;;5012622;28;20793;-72
2023/07/21 08:05:35;;;;;;;15.93;13.50;;;21.60;25.30;;;;;;5013181;28;20490;-73
2023/07/21 08:08:02;;;;;;;14.90;12.80;;;21.60;26.20;;;;;;5013311;28;20393;-71
2023/07/21 08:10:28;;;;;;;18.40;15.10;;;21.50;26.10;;;;;;5012579;28;20804;-71
2023/07/21 08:12:55;;;;;;;18.58;13.50;;;21.50;26.80;;;;;;5011003;28;20401;-72
2023/07/21 08:15:21;;;;;;;17.65;14.85;;;21.50;27.20;;;;;;5012678;28;20381;-72
2023/07/21 08:17:48;;;;;;;18.73;14.93;;;21.70;26.20;;;;;;5012750;28;20507;-72
2023/07/21 08:20:13;;;;;;;18.90;15.40;;;21.60;26.30;;;;;;5012371;28;20393;-72
2023/07/21 08:22:39;;;;;;;14.70;12.43;;;21.70;26.50;;;;;;5012428;28;20380;-73
2023/07/21 08:25:05;;;;;;;15.50;11.50;;;21.90;25.60;;;;;;5012665;28;20468;-72
2023/07/21 08:27:34;;;;;;;11.97;10.50;;;22.20;23.30;;;;;;5011972;28;20886;-73
2023/07/21 08:29:59;;;;;;;12.20;8.98;;;22.20;23.40;;;;;;5012400;28;20393;-72
2023/07/21 08:32:25;;;;;;;15.20;9.88;;;22.40;20.80;;;;;;5013174;28;20854;-72
2023/07/21 08:34:51;;;;;;;11.87;10.00;;;22.20;22.50;;;;;;5012772;28;20384;-72
2023/07/21 08:37:16;;;;;;;14.87;10.80;;;21.80;22.90;;;;;;5012142;28;20389;-73
2023/07/21 08:39:42;;;;;;;12.33;10.20;;;21.60;24.70;;;;;;5012455;28;20388;-73
2023/07/21 08:42:11;;;;;;;11.43;9.10;;;21.50;24.30;;;;;;5012310;28;20495;-73
2023/07/21 08:44:38;;;;;;;15.75;10.85;;;21.30;24.60;;;;;;5012526;28;20385;-73
2023/07/21 08:47:04;;;;;;;12.40;9.90;;;21.10;24.40;;;;;;5012047;28;20385;-73
2023/07/21 08:49:30;;;;;;;11.55;9.55;;;21.00;24.90;;;;;;5013216;28;20408;-73
2023/07/21 08:51:56;;;;;;;13.50;10.10;;;21.10;25.00;;;;;;5013412;28;20466;-72
2023/07/21 08:54:22;;;;;;;10.60;9.33;;;21.20;24.60;;;;;;5012502;28;20475;-73
2023/07/21 08:56:47;;;;;;;12.33;10.30;;;21.40;24.40;;;;;;5011971;28;20432;-71
2023/07/21 08:59:13;;;;;;;13.88;9.50;;;21.60;23.70;;;;;;5011808;28;20492;-72
2023/07/21 09:01:39;;;;;;;11.55;9.27;;;21.50;22.90;;;;;;5011617;28;20405;-72
2023/07/21 09:04:26;;;;;;;9.50;8.40;;;21.60;22.90;;;;;;5011187;28;20532;-72
2023/07/21 09:06:57;;;;;;;11.77;8.73;;;21.80;22.00;;;;;;5010808;28;20399;-73
2023/07/21 09:09:28;;;;;;;11.73;7.95;;;22.00;22.40;;;;;;5011489;28;20393;-73
2023/07/21 09:12:04;;;;;;;11.57;9.13;;;22.70;19.20;;;;;;5011969;28;20866;-73
2023/07/21 09:14:39;;;;;;;12.68;11.32;;;22.90;19.40;;;;;;5011618;28;20388;-71
2023/07/21 09:17:07;;;;;;;11.25;9.95;;;23.00;18.50;;;;;;5045834;22;20441;-73
2023/07/21 09:19:40;;;;;;;14.02;10.88;;;22.80;18.90;;;;;;5051449;28;20567;-72
2023/07/21 09:22:09;;;;;;;12.98;10.57;;;22.80;19.30;;;;;;5051015;28;20734;-74
2023/07/21 09:24:37;;;;;;;14.85;10.32;;;22.90;19.90;;;;;;5051295;28;20873;-73
2023/07/21 09:27:13;;;;;;;12.43;9.82;;;22.90;20.00;;;;;;5050979;28;20804;-73
2023/07/21 09:29:40;;;;;;;10.38;8.77;;;23.20;18.90;;;;;;5051366;28;20471;-74
2023/07/21 09:32:15;;;;;;;10.98;9.07;;;23.40;18.90;;;;;;5051129;28;20435;-74
2023/07/21 09:34:51;;;;;;;13.13;9.47;;;23.50;18.60;;;;;;5050873;28;20397;-74
2023/07/21 09:37:17;;;;;;;11.82;9.82;;;23.20;18.90;;;;;;5033607;28;20680;-74
2023/07/21 09:39:44;;;;;;;12.13;9.60;;;22.80;19.50;;;;;;5051770;28;20403;-73
2023/07/21 09:42:12;;;;;;;11.25;9.30;;;22.80;19.30;;;;;;5051044;28;20397;-74
2023/07/21 09:44:38;;;;;;;16.17;9.65;;;22.50;20.20;;;;;;5033279;28;20397;-73
2023/07/21 09:47:04;;;;;;;9.98;8.85;;;22.80;20.20;;;;;;5050595;28;20417;-74
2023/07/21 09:49:30;;;;;;;9.17;6.70;;;22.80;20.10;;;;;;5051100;28;20401;-73
2023/07/21 09:51:57;;;;;;;10.50;6.70;;;22.70;17.80;;;;;;5032953;28;20825;-74
2023/07/21 09:54:26;;;;;;;9.73;7.57;;;22.60;18.90;;;;;;5051350;28;20392;-73
2023/07/21 09:56:53;;;;;;;10.10;7.35;;;22.90;18.50;;;;;;5050725;28;20758;-73
2023/07/21 09:59:20;;;;;;;8.87;7.57;;;22.50;18.40;;;;;;5050648;28;20389;-74
2023/07/21 10:01:48;;;;;;;10.23;8.43;;;22.60;18.50;;;;;;5050510;28;20407;-74
2023/07/21 10:04:15;;;;;;;10.48;8.60;;;22.40;18.70;;;;;;5050503;28;20469;-73
2023/07/21 10:06:41;;;;;;;8.20;6.90;;;22.20;19.10;;;;;;5049995;28;20466;-73
2023/07/21 10:09:09;;;;;;;11.23;7.40;;;22.30;19.10;;;;;;5050222;28;20909;-74
2023/07/21 10:11:34;;;;;;;8.30;6.60;;;22.40;19.20;;;;;;5049771;28;20447;-73
2023/07/21 10:14:00;;;;;;;9.43;7.80;;;22.60;18.30;;;;;;5049871;28;20781;-72
2023/07/21 10:16:28;;;;;;;7.47;6.00;;;22.80;17.80;;;;;;5049661;28;20392;-73
2023/07/21 10:19:11;;;;;;;6.80;6.10;;;22.80;18.00;;;;;;5050806;28;20862;-73
2023/07/21 10:21:52;;;;;;;8.70;7.10;;;22.90;17.70;;;;;;5053723;28;20886;-72
2023/07/21 10:24:24;;;;;;;9.23;6.10;;;23.00;17.30;;;;;;5053784;28;20413;-73
2023/07/21 10:26:55;;;;;;;7.60;5.40;;;23.20;16.20;;;;;;5054045;28;20385;-73
2023/07/21 10:29:20;;;;;;;7.80;5.30;;;23.10;16.30;;;;;;5054334;28;20384;-73
2023/07/21 10:31:56;;;;;;;6.83;5.30;;;23.20;15.90;;;;;;5053980;28;20823;-73
2023/07/21 10:34:32;;;;;;;6.63;5.40;;;23.30;15.70;;;;;;5054047;28;20378;-73
2023/07/21 10:37:04;;;;;;;8.57;5.28;;;23.30;15.40;;;;;;5054154;28;20393;-74
2023/07/21 10:39:31;;;;;;;7.97;5.43;;;23.40;15.70;;;;;;5053946;28;20385;-73
2023/07/21 10:41:59;;;;;;;7.28;5.18;;;23.60;14.50;;;;;;5053853;28;20964;-72
2023/07/21 10:44:35;;;;;;;6.57;4.27;;;23.70;14.00;;;;;;5058511;28;20900;-73
2023/07/21 10:47:01;;;;;;;5.90;5.00;;;23.80;14.20;;;;;;5053800;28;20381;-73
2023/07/21 10:49:27;;;;;;;9.15;5.03;;;24.00;13.90;;;;;;5054000;28;20443;-72
2023/07/21 10:51:52;;;;;;;6.90;4.10;;;24.10;14.00;;;;;;5053651;28;20385;-72
2023/07/21 10:54:18;;;;;;;7.27;4.43;;;24.40;13.90;;;;;;5053864;28;20383;-73
2023/07/21 10:56:49;;;;;;;6.78;4.30;;;24.70;13.00;;;;;;5053869;28;20393;-73
2023/07/21 10:59:16;;;;;;;8.27;4.20;;;25.00;12.90;;;;;;5053472;28;20743;-73
2023/07/21 11:01:56;;;;;;;4.30;3.60;;;25.50;10.90;;;;;;5053380;28;20640;-73
2023/07/21 11:04:22;;;;;;;6.85;4.20;;;25.50;9.80;;;;;;5054202;28;20393;-72
2023/07/21 11:06:51;;;;;;;6.03;4.30;;;25.20;10.70;;;;;;5035700;28;20385;-73
2023/07/21 11:09:18;;;;;;;7.00;4.20;;;25.40;11.00;;;;;;5053451;28;20877;-73
2023/07/21 11:11:48;;;;;;;4.60;3.90;;;25.50;10.50;;;;;;5053492;28;20381;-73
2023/07/21 11:14:25;;;;;;;4.28;3.80;;;25.60;10.10;;;;;;5053185;28;20390;-72
2023/07/21 11:16:53;;;;;;;5.35;3.83;;;25.70;11.20;;;;;;5035337;28;20405;-72
2023/07/21 11:19:24;;;;;;;4.85;3.60;;;26.00;10.60;;;;;;5053317;28;20392;-73
2023/07/21 11:21:50;;;;;;;4.95;3.35;;;25.80;9.20;;;;;;5053087;28;20448;-72
2023/07/21 11:24:22;;;;;;;6.40;3.50;;;25.80;9.10;;;;;;5053305;28;20403;-72
2023/07/21 11:26:48;;;;;;;4.00;3.50;;;25.40;9.20;;;;;;5053345;28;20377;-73
2023/07/21 11:29:18;;;;;;;3.97;3.30;;;24.90;10.60;;;;;;5053233;28;20738;-73
2023/07/21 11:31:43;;;;;;;3.97;3.50;;;24.80;12.00;;;;;;5052629;28;20378;-73
2023/07/21 11:34:25;;;;;;;5.50;4.00;;;24.80;11.60;;;;;;5053131;28;20392;-73
2023/07/21 11:36:55;;;;;;;4.18;3.78;;;24.50;11.40;;;;;;5053101;28;20446;-73
2023/07/21 11:39:22;;;;;;;4.40;3.47;;;24.40;11.50;;;;;;5053003;28;20761;-73
2023/07/21 11:41:52;;;;;;;3.58;3.28;;;24.50;11.90;;;;;;5052870;28;20401;-73
2023/07/21 11:44:30;;;;;;;3.70;3.40;;;24.70;11.80;;;;;;5052995;28;20794;-73
2023/07/21 11:47:09;;;;;;;5.70;3.53;;;24.70;11.70;;;;;;5052677;28;20389;-73
2023/07/21 11:49:41;;;;;;;4.68;3.63;;;24.70;10.70;;;;;;5052755;28;20463;-73
2023/07/21 11:52:08;;;;;;;4.30;3.90;;;24.70;10.90;;;;;;5052627;28;20414;-73
2023/07/21 11:54:41;;;;;;;4.53;3.83;;;24.80;11.20;;;;;;5052793;28;20389;-73
2023/07/21 11:57:08;;;;;;;4.30;3.90;;;24.80;9.70;;;;;;5052963;28;20502;-73
2023/07/21 11:59:34;;;;;;;3.80;3.50;;;24.60;8.90;;;;;;5053877;28;20724;-72
2023/07/21 12:02:06;;;;;;;5.78;3.90;;;24.50;8.30;;;;;;5056204;28;20885;-73
2023/07/21 12:04:33;;;;;;;5.43;4.60;;;24.40;9.30;;;;;;5055415;28;20392;-72
2023/07/21 12:06:59;;;;;;;5.03;3.90;;;24.20;10.20;;;;;;5055179;28;20377;-73
2023/07/21 12:09:25;;;;;;;4.72;3.40;;;24.20;10.40;;;;;;5052500;28;20381;-73
2023/07/21 12:11:53;;;;;;;5.53;4.00;;;24.30;11.10;;;;;;5052297;28;20734;-73
2023/07/21 12:14:19;;;;;;;4.22;3.83;;;24.50;11.50;;;;;;5052215;28;20417;-72
2023/07/21 12:16:45;;;;;;;6.32;4.07;;;24.90;10.30;;;;;;5052061;28;20436;-73
2023/07/21 12:19:11;;;;;;;4.07;3.67;;;24.70;10.40;;;;;;5052567;28;20892;-72
2023/07/21 12:21:37;;;;;;;4.60;3.60;;;25.20;11.00;;;;;;5052278;28;20397;-73
2023/07/21 12:24:02;;;;;;;5.30;3.22;;;25.70;8.00;;;;;;5052147;28;20943;-73
2023/07/21 12:26:28;;;;;;;4.40;3.20;;;26.10;6.60;;;;;;5051538;28;20392;-72
2023/07/21 12:28:53;;;;;;;3.67;2.77;;;26.40;6.00;;;;;;5052264;28;20393;-73
2023/07/21 12:31:20;;;;;;;2.53;2.33;;;26.30;4.30;;;;;;5052022;28;20385;-74
2023/07/21 12:33:48;;;;;;;4.78;2.60;;;25.90;3.80;;;;;;5052569;28;20390;-73
2023/07/21 12:36:14;;;;;;;3.03;2.77;;;25.40;4.90;;;;;;5052022;28;20800;-74